createdAt,value
2018-09-17T00:00:07.440Z,99.90
2018-09-17T00:02:35.768Z,99.90
2018-09-17T00:05:04.172Z,99.90
2018-09-17T00:07:32.508Z,99.90
2018-09-17T00:10:00.919Z,99.90
2018-09-17T00:12:29.245Z,99.90
2018-09-17T00:14:57.607Z,99.90
2018-09-17T00:17:25.941Z,99.90
2018-09-17T00:19:54.256Z,99.90
2018-09-17T00:22:22.665Z,99.90
2018-09-17T00:24:51.056Z,99.90
2018-09-17T00:27:19.378Z,99.90
2018-09-17T00:29:47.754Z,99.90
2018-09-17T00:32:16.099Z,99.90
2018-09-17T00:34:44.436Z,99.90
2018-09-17T00:37:12.750Z,99.90
2018-09-17T00:39:41.104Z,99.90
2018-09-17T00:42:09.424Z,99.90
2018-09-17T00:44:37.780Z,99.90
2018-09-17T00:47:06.111Z,99.90
2018-09-17T00:49:34.465Z,99.90
2018-09-17T00:52:02.856Z,99.90
2018-09-17T00:54:31.252Z,99.90
2018-09-17T00:56:59.579Z,99.90
2018-09-17T00:59:27.908Z,99.90
2018-09-17T01:01:56.259Z,99.90
2018-09-17T01:04:24.628Z,99.90
2018-09-17T01:06:52.937Z,99.90
2018-09-17T01:09:26.567Z,99.90
2018-09-17T01:11:54.927Z,99.90
2018-09-17T01:14:23.257Z,99.90
2018-09-17T01:16:51.608Z,99.90
2018-09-17T01:19:19.947Z,99.90
2018-09-17T01:21:48.287Z,99.90
2018-09-17T01:24:16.655Z,99.90
2018-09-17T01:26:45.014Z,99.90
2018-09-17T01:29:13.376Z,99.90
2018-09-17T01:31:41.765Z,99.90
2018-09-17T01:34:10.178Z,99.90
2018-09-17T01:36:38.495Z,99.90
2018-09-17T01:39:09.019Z,99.90
2018-09-17T01:41:37.398Z,99.90
2018-09-17T01:44:05.905Z,99.90
2018-09-17T01:46:34.237Z,99.90
2018-09-17T01:49:02.588Z,99.90
2018-09-17T01:51:30.961Z,99.90
2018-09-17T01:53:59.272Z,99.90
2018-09-17T01:56:27.629Z,99.90
2018-09-17T01:58:55.957Z,99.90
2018-09-17T02:01:24.382Z,99.90
2018-09-17T02:03:52.754Z,99.90
2018-09-17T02:06:22.271Z,99.90
2018-09-17T02:08:50.700Z,99.90
2018-09-17T02:11:19.008Z,99.90
2018-09-17T02:13:47.329Z,99.90
2018-09-17T02:16:15.680Z,99.90
2018-09-17T02:18:44.159Z,99.90
2018-09-17T02:21:13.356Z,99.90
2018-09-17T02:23:41.816Z,99.90
2018-09-17T02:26:10.172Z,99.90
2018-09-17T02:28:38.488Z,99.90
2018-09-17T02:31:06.828Z,99.90
2018-09-17T02:33:35.153Z,99.90
2018-09-17T02:36:03.508Z,99.90
2018-09-17T02:38:31.871Z,99.90
2018-09-17T02:41:00.286Z,99.90
2018-09-17T02:43:28.659Z,99.90
2018-09-17T02:45:56.969Z,99.90
2018-09-17T02:48:25.346Z,99.90
2018-09-17T02:50:53.673Z,99.90
2018-09-17T02:53:22.042Z,99.90
2018-09-17T02:55:50.360Z,99.90
2018-09-17T02:58:18.717Z,99.90
2018-09-17T03:00:47.042Z,99.90
2018-09-17T03:03:15.408Z,99.90
2018-09-17T03:05:43.780Z,99.90
2018-09-17T03:08:12.128Z,99.90
2018-09-17T03:10:40.452Z,99.90
2018-09-17T03:13:08.802Z,99.90
2018-09-17T03:15:50.225Z,99.90
2018-09-17T03:18:29.804Z,99.90
2018-09-17T03:20:58.171Z,99.90
2018-09-17T03:23:26.527Z,99.90
2018-09-17T03:25:54.860Z,99.90
2018-09-17T03:28:23.240Z,99.90
2018-09-17T03:30:51.567Z,99.90
2018-09-17T03:33:19.997Z,99.90
2018-09-17T03:35:48.344Z,99.90
2018-09-17T03:38:35.381Z,99.90
2018-09-17T03:41:04.735Z,99.90
2018-09-17T03:43:34.137Z,99.90
2018-09-17T03:46:02.460Z,99.90
2018-09-17T03:48:31.963Z,99.90
2018-09-17T03:51:00.815Z,99.90
2018-09-17T03:53:29.500Z,99.90
2018-09-17T03:55:57.800Z,99.90
2018-09-17T03:58:26.373Z,99.90
2018-09-17T04:00:54.764Z,99.90
2018-09-17T04:03:23.161Z,99.90
2018-09-17T04:05:51.505Z,99.90
2018-09-17T04:08:19.867Z,99.90
2018-09-17T04:10:48.230Z,99.90
2018-09-17T04:13:16.603Z,99.90
2018-09-17T04:15:44.979Z,99.90
2018-09-17T04:18:13.336Z,99.90
2018-09-17T04:20:41.676Z,99.90
2018-09-17T04:23:10.026Z,99.90
2018-09-17T04:25:38.396Z,99.90
2018-09-17T04:28:06.887Z,99.90
2018-09-17T04:30:35.284Z,99.90
2018-09-17T04:33:05.049Z,99.90
2018-09-17T04:35:33.372Z,99.90
2018-09-17T04:38:01.718Z,99.90
2018-09-17T04:40:30.031Z,99.90
2018-09-17T04:42:58.389Z,99.90
2018-09-17T04:45:26.768Z,99.90
2018-09-17T04:47:55.101Z,99.90
2018-09-17T04:50:23.428Z,99.90
2018-09-17T04:52:51.803Z,99.90
2018-09-17T04:55:20.147Z,99.90
2018-09-17T04:57:48.488Z,99.90
2018-09-17T05:00:16.972Z,99.90
2018-09-17T05:02:45.345Z,99.90
2018-09-17T05:05:13.802Z,99.90
2018-09-17T05:07:42.134Z,99.90
2018-09-17T05:10:10.510Z,99.90
2018-09-17T05:12:38.874Z,99.90
2018-09-17T05:15:07.488Z,99.90
2018-09-17T05:17:35.891Z,99.90
2018-09-17T05:20:04.281Z,99.90
2018-09-17T05:22:32.620Z,99.90
2018-09-17T05:25:00.970Z,99.90
2018-09-17T05:27:29.385Z,99.90
2018-09-17T05:29:57.740Z,99.90
2018-09-17T05:32:26.115Z,99.90
2018-09-17T05:34:54.629Z,99.90
2018-09-17T05:37:22.936Z,99.90
2018-09-17T05:39:51.360Z,99.90
2018-09-17T05:42:20.675Z,99.90
2018-09-17T05:44:49.057Z,99.90
2018-09-17T05:47:17.392Z,99.90
2018-09-17T05:49:45.769Z,99.90
2018-09-17T05:52:14.123Z,99.90
2018-09-17T05:54:42.499Z,99.90
2018-09-17T05:57:10.839Z,99.90
2018-09-17T05:59:39.293Z,99.90
2018-09-17T06:02:07.768Z,99.90
2018-09-17T06:04:36.096Z,99.90
2018-09-17T06:07:04.561Z,99.90
2018-09-17T06:09:33.030Z,99.90
2018-09-17T06:12:01.329Z,99.90
2018-09-17T06:14:29.757Z,99.90
2018-09-17T06:16:58.073Z,99.90
2018-09-17T06:19:26.537Z,99.90
2018-09-17T06:21:55.101Z,99.90
2018-09-17T06:24:23.425Z,99.90
2018-09-17T06:26:51.771Z,99.90
2018-09-17T06:29:20.098Z,99.90
2018-09-17T06:31:48.459Z,99.90
2018-09-17T06:34:16.814Z,99.90
2018-09-17T06:36:45.158Z,99.90
2018-09-17T06:39:13.508Z,99.90
2018-09-17T06:41:41.963Z,99.90
2018-09-17T06:44:10.287Z,99.90
2018-09-17T06:46:38.608Z,99.90
2018-09-17T06:49:07.166Z,99.90
2018-09-17T06:51:35.497Z,99.90
2018-09-17T06:54:03.848Z,99.90
2018-09-17T06:56:32.174Z,99.90
2018-09-17T06:59:00.547Z,99.90
2018-09-17T07:01:28.874Z,99.90
2018-09-17T07:03:57.215Z,99.90
2018-09-17T07:06:25.546Z,99.90
2018-09-17T07:08:53.991Z,99.90
2018-09-17T07:11:22.341Z,99.90
2018-09-17T07:13:50.656Z,99.90
2018-09-17T07:16:19.004Z,99.90
2018-09-17T07:18:47.339Z,99.90
2018-09-17T07:21:15.644Z,99.90
2018-09-17T07:23:43.994Z,99.90
2018-09-17T07:26:12.400Z,99.90
2018-09-17T07:28:40.835Z,99.90
2018-09-17T07:31:09.193Z,99.90
2018-09-17T07:33:37.552Z,99.90
2018-09-17T07:36:05.941Z,99.90
2018-09-17T07:38:34.316Z,99.90
2018-09-17T07:41:02.690Z,99.90
2018-09-17T07:43:31.076Z,99.90
2018-09-17T07:45:59.418Z,99.90
2018-09-17T07:48:27.739Z,99.90
2018-09-17T07:50:56.076Z,99.90
2018-09-17T07:53:24.464Z,99.90
2018-09-17T07:55:52.848Z,99.90
2018-09-17T07:58:21.168Z,99.90
2018-09-17T08:00:49.532Z,99.90
2018-09-17T08:03:17.914Z,99.90
2018-09-17T08:05:46.373Z,99.90
2018-09-17T08:08:14.658Z,99.90
2018-09-17T08:10:43.012Z,99.90
2018-09-17T08:13:11.360Z,99.90
2018-09-17T08:15:39.684Z,99.90
2018-09-17T08:18:08.029Z,99.90
2018-09-17T08:20:36.380Z,99.90
2018-09-17T08:23:04.715Z,99.90
2018-09-17T08:25:33.091Z,99.90
2018-09-17T08:28:01.408Z,99.90
2018-09-17T08:30:29.790Z,99.90
2018-09-17T08:32:58.148Z,99.90
2018-09-17T08:35:26.507Z,99.90
2018-09-17T08:37:54.854Z,99.90
2018-09-17T08:40:23.201Z,99.90
2018-09-17T08:42:51.541Z,99.90
2018-09-17T08:45:19.962Z,99.90
2018-09-17T08:47:48.284Z,99.90
2018-09-17T08:50:16.667Z,99.90
2018-09-17T08:52:45.035Z,99.90
2018-09-17T08:55:18.833Z,99.90
2018-09-17T08:57:52.716Z,99.90
2018-09-17T09:00:21.287Z,99.90
2018-09-17T09:02:50.192Z,99.90
2018-09-17T09:05:24.111Z,99.90
2018-09-17T09:07:53.576Z,99.90
2018-09-17T09:10:27.253Z,99.90
2018-09-17T09:12:56.368Z,99.90
2018-09-17T09:15:30.505Z,99.90
2018-09-17T09:17:58.837Z,99.90
2018-09-17T09:20:27.192Z,99.90
2018-09-17T09:22:55.577Z,99.90
2018-09-17T09:25:24.438Z,99.90
2018-09-17T09:27:52.807Z,99.90
2018-09-17T09:30:21.258Z,99.90
2018-09-17T09:32:49.644Z,99.90
2018-09-17T09:35:18.032Z,99.90
2018-09-17T09:37:46.477Z,99.90
2018-09-17T09:40:14.984Z,99.90
2018-09-17T09:42:44.196Z,99.90
2018-09-17T09:45:12.904Z,99.90
2018-09-17T09:47:41.241Z,99.90
2018-09-17T09:50:09.583Z,99.90
2018-09-17T09:52:37.989Z,99.90
2018-09-17T09:55:06.341Z,99.90
2018-09-17T09:57:34.743Z,99.90
2018-09-17T10:00:03.099Z,99.90
2018-09-17T10:02:35.671Z,99.90
2018-09-17T10:05:05.137Z,99.90
2018-09-17T10:07:33.514Z,99.90
2018-09-17T10:10:07.140Z,99.90
2018-09-17T10:12:40.928Z,99.90
2018-09-17T10:15:15.603Z,99.90
2018-09-17T10:17:49.310Z,99.90
2018-09-17T10:20:17.644Z,99.90
2018-09-17T10:22:45.975Z,99.90
2018-09-17T10:25:14.328Z,99.90
2018-09-17T10:27:42.680Z,99.90
2018-09-17T10:30:11.045Z,99.90
2018-09-17T10:32:39.444Z,99.90
2018-09-17T10:35:07.792Z,99.90
2018-09-17T10:37:36.157Z,99.90
2018-09-17T10:40:04.562Z,99.90
2018-09-17T10:42:32.932Z,99.90
2018-09-17T10:45:01.296Z,99.90
2018-09-17T10:47:29.677Z,99.90
2018-09-17T10:49:58.013Z,99.90
2018-09-17T10:52:26.347Z,99.90
2018-09-17T10:54:54.699Z,99.90
2018-09-17T10:57:23.063Z,99.90
2018-09-17T10:59:51.361Z,99.90
2018-09-17T11:02:19.716Z,99.90
2018-09-17T11:04:48.083Z,99.90
2018-09-17T11:07:16.445Z,99.90
2018-09-17T11:09:44.769Z,99.90
2018-09-17T11:12:13.112Z,99.90
2018-09-17T11:14:41.571Z,99.90
2018-09-17T11:17:09.952Z,99.90
2018-09-17T11:19:38.256Z,99.90
2018-09-17T11:22:06.659Z,99.30
2018-09-17T11:24:35.025Z,99.10
2018-09-17T11:27:03.411Z,98.10
2018-09-17T11:29:31.744Z,99.00
2018-09-17T11:32:00.123Z,94.40
2018-09-17T11:34:28.523Z,96.00
2018-09-17T11:36:56.855Z,95.10
2018-09-17T11:39:25.247Z,93.40
2018-09-17T11:41:53.560Z,89.90
2018-09-17T11:44:21.896Z,91.00
2018-09-17T11:46:50.239Z,90.50
2018-09-17T11:49:18.583Z,80.00
2018-09-17T11:51:47.046Z,75.40
2018-09-17T11:54:15.379Z,75.80
2018-09-17T11:56:43.725Z,74.00
2018-09-17T11:59:12.049Z,69.20
2018-09-17T12:01:45.757Z,74.00
2018-09-17T12:04:16.230Z,72.20
2018-09-17T12:06:50.252Z,77.60
2018-09-17T12:09:18.651Z,76.90
2018-09-17T12:11:47.005Z,75.40
2018-09-17T12:14:15.360Z,78.20
2018-09-17T12:16:43.722Z,76.40
2018-09-17T12:19:12.099Z,79.20
2018-09-17T12:21:40.504Z,72.80
2018-09-17T12:24:08.832Z,72.60
2018-09-17T12:26:37.240Z,72.20
2018-09-17T12:29:05.676Z,72.80
2018-09-17T12:31:34.079Z,73.00
2018-09-17T12:34:02.529Z,74.50
2018-09-17T12:36:31.500Z,76.20
2018-09-17T12:38:59.951Z,73.60
2018-09-17T12:41:28.307Z,72.40
2018-09-17T12:43:56.719Z,71.50
2018-09-17T12:46:25.099Z,70.70
2018-09-17T12:48:53.573Z,71.40
2018-09-17T12:51:22.022Z,70.50
2018-09-17T12:53:50.399Z,68.00
2018-09-17T12:56:18.731Z,72.20
2018-09-17T12:58:47.204Z,69.10
2018-09-17T13:01:15.575Z,68.80
2018-09-17T13:03:43.911Z,67.10
2018-09-17T13:06:12.390Z,69.10
2018-09-17T13:08:40.833Z,66.70
2018-09-17T13:11:09.408Z,68.40
2018-09-17T13:13:39.564Z,60.90
2018-09-17T13:16:08.513Z,63.30
2018-09-17T13:18:36.897Z,66.00
2018-09-17T13:21:05.349Z,70.00
2018-09-17T13:23:33.910Z,64.80
2018-09-17T13:26:02.379Z,61.90
2018-09-17T13:28:30.958Z,61.60
2018-09-17T13:30:59.422Z,62.50
2018-09-17T13:33:27.827Z,61.60
2018-09-17T13:35:56.335Z,63.90
2018-09-17T13:38:24.769Z,61.30
2018-09-17T13:40:53.111Z,63.20
2018-09-17T13:43:21.486Z,63.00
2018-09-17T13:45:49.932Z,62.50
2018-09-17T13:48:18.374Z,59.90
2018-09-17T13:50:46.789Z,59.90
2018-09-17T13:53:15.263Z,58.00
2018-09-17T13:55:43.671Z,57.80
2018-09-17T13:58:12.102Z,58.00
2018-09-17T14:00:40.532Z,60.00
2018-09-17T14:03:09.051Z,57.90
2018-09-17T14:05:37.434Z,57.40
2018-09-17T14:08:05.929Z,58.50
2018-09-17T14:10:34.341Z,58.60
2018-09-17T14:13:02.705Z,62.00
2018-09-17T14:15:31.100Z,59.40
2018-09-17T14:17:59.568Z,56.50
2018-09-17T14:20:28.022Z,56.30
2018-09-17T14:22:56.639Z,54.90
2018-09-17T14:25:25.081Z,57.30
2018-09-17T14:27:53.472Z,54.30
2018-09-17T14:30:21.855Z,54.20
2018-09-17T14:32:55.561Z,55.40
2018-09-17T14:35:23.878Z,55.20
2018-09-17T14:37:52.214Z,55.30
2018-09-17T14:40:20.547Z,56.30
2018-09-17T14:42:48.948Z,55.60
2018-09-17T14:45:17.336Z,56.10
2018-09-17T14:47:45.723Z,56.40
2018-09-17T14:50:14.124Z,56.20
2018-09-17T14:52:42.455Z,55.00
2018-09-17T14:55:10.843Z,54.20
2018-09-17T14:57:39.254Z,54.80
2018-09-17T15:00:07.659Z,57.00
2018-09-17T15:02:36.058Z,54.60
2018-09-17T15:05:04.554Z,52.70
2018-09-17T15:07:33.109Z,52.60
2018-09-17T15:10:01.559Z,55.60
2018-09-17T15:12:30.044Z,53.30
2018-09-17T15:14:58.423Z,54.20
2018-09-17T15:17:26.809Z,53.70
2018-09-17T15:19:55.239Z,55.00
2018-09-17T15:22:23.746Z,52.70
2018-09-17T15:24:52.168Z,51.40
2018-09-17T15:27:20.541Z,52.90
2018-09-17T15:29:49.250Z,53.40
2018-09-17T15:32:17.769Z,52.80
2018-09-17T15:34:46.126Z,54.10
2018-09-17T15:37:14.525Z,55.80
2018-09-17T15:39:42.942Z,55.40
2018-09-17T15:42:11.376Z,57.10
2018-09-17T15:44:39.748Z,57.40
2018-09-17T15:47:08.132Z,56.50
2018-09-17T15:49:36.508Z,56.00
2018-09-17T15:52:04.907Z,56.30
2018-09-17T15:54:33.260Z,56.60
2018-09-17T15:57:01.760Z,56.50
2018-09-17T15:59:30.171Z,56.50
2018-09-17T16:01:58.525Z,57.90
2018-09-17T16:04:26.909Z,57.00
2018-09-17T16:06:55.272Z,56.90
2018-09-17T16:09:23.677Z,57.50
2018-09-17T16:11:52.156Z,57.80
2018-09-17T16:14:20.578Z,57.50
2018-09-17T16:16:48.939Z,58.70
2018-09-17T16:19:17.433Z,59.50
2018-09-17T16:21:45.760Z,60.50
2018-09-17T16:24:14.200Z,60.50
2018-09-17T16:26:42.557Z,61.70
2018-09-17T16:29:10.944Z,61.20
2018-09-17T16:31:39.309Z,61.50
2018-09-17T16:34:07.761Z,60.00
2018-09-17T16:36:36.266Z,59.30
2018-09-17T16:39:07.298Z,60.60
2018-09-17T16:41:35.748Z,60.10
2018-09-17T16:44:04.190Z,60.50
2018-09-17T16:46:34.518Z,60.00
2018-09-17T16:49:04.610Z,60.80
2018-09-17T16:51:32.993Z,61.20
2018-09-17T16:54:01.337Z,61.90
2018-09-17T16:56:29.880Z,65.50
2018-09-17T16:59:00.440Z,67.70
2018-09-17T17:01:30.743Z,68.40
2018-09-17T17:04:00.917Z,69.10
2018-09-17T17:06:37.843Z,69.00
2018-09-17T17:09:10.701Z,71.10
2018-09-17T17:11:41.159Z,73.30
2018-09-17T17:14:11.581Z,75.00
2018-09-17T17:16:41.360Z,76.80
2018-09-17T17:19:09.859Z,75.50
2018-09-17T17:21:38.213Z,76.10
2018-09-17T17:24:06.784Z,76.90
2018-09-17T17:26:35.271Z,78.70
2018-09-17T17:29:03.768Z,80.00
2018-09-17T17:31:32.129Z,81.30
2018-09-17T17:34:00.630Z,82.00
2018-09-17T17:36:30.045Z,82.90
2018-09-17T17:38:58.456Z,83.60
2018-09-17T17:41:26.884Z,83.90
2018-09-17T17:43:55.401Z,84.00
2018-09-17T17:46:23.845Z,84.20
2018-09-17T17:48:52.171Z,84.90
2018-09-17T17:51:20.604Z,85.10
2018-09-17T17:53:48.997Z,85.00
2018-09-17T17:56:17.448Z,86.60
2018-09-17T17:58:45.859Z,87.30
2018-09-17T18:01:14.472Z,88.10
2018-09-17T18:03:42.696Z,89.00
2018-09-17T18:06:11.049Z,89.60
2018-09-17T18:08:39.553Z,90.30
2018-09-17T18:11:07.913Z,90.70
2018-09-17T18:13:36.381Z,91.20
2018-09-17T18:16:04.861Z,91.00
2018-09-17T18:18:35.318Z,91.50
2018-09-17T18:21:03.901Z,91.80
2018-09-17T18:23:32.312Z,92.90
2018-09-17T18:26:00.693Z,93.60
2018-09-17T18:28:29.494Z,94.20
2018-09-17T18:30:59.760Z,94.20
2018-09-17T18:33:30.298Z,95.00
2018-09-17T18:36:00.680Z,96.20
2018-09-17T18:38:31.420Z,96.90
2018-09-17T18:41:02.113Z,97.70
2018-09-17T18:43:33.598Z,98.90
2018-09-17T18:46:11.574Z,99.90
2018-09-17T18:48:46.800Z,99.90
2018-09-17T18:51:16.890Z,99.90
2018-09-17T18:53:46.486Z,99.90
2018-09-17T18:56:14.953Z,99.90
2018-09-17T18:58:43.498Z,99.90
2018-09-17T19:01:12.253Z,99.90
2018-09-17T19:03:41.024Z,99.90
2018-09-17T19:06:12.384Z,99.90
2018-09-17T19:08:43.350Z,99.90
2018-09-17T19:11:12.942Z,99.90
2018-09-17T19:13:46.646Z,99.90
2018-09-17T19:16:19.974Z,99.90
2018-09-17T19:18:51.633Z,99.90
2018-09-17T19:21:26.152Z,99.90
2018-09-17T19:24:00.136Z,99.90
2018-09-17T19:26:32.049Z,99.90
2018-09-17T19:29:12.044Z,99.90
2018-09-17T19:31:50.143Z,99.90
2018-09-17T19:34:21.868Z,99.90
2018-09-17T19:36:52.826Z,99.90
2018-09-17T19:39:32.660Z,99.90
2018-09-17T19:42:03.448Z,99.90
2018-09-17T19:44:33.345Z,99.90
2018-09-17T19:47:01.784Z,99.90
2018-09-17T19:49:31.477Z,99.90
2018-09-17T19:52:05.897Z,99.90
2018-09-17T19:54:34.325Z,99.90
2018-09-17T19:57:08.384Z,99.90
2018-09-17T19:59:42.332Z,99.90
2018-09-17T20:02:11.845Z,99.90
2018-09-17T20:04:47.265Z,99.90
2018-09-17T20:07:15.717Z,99.90
2018-09-17T20:09:44.176Z,99.90
2018-09-17T20:12:12.599Z,99.90
2018-09-17T20:14:42.080Z,99.90
2018-09-17T20:17:11.874Z,99.90
2018-09-17T20:19:46.488Z,99.90
2018-09-17T20:22:15.041Z,99.90
2018-09-17T20:24:43.935Z,99.90
2018-09-17T20:27:12.633Z,99.90
2018-09-17T20:29:42.533Z,99.90
2018-09-17T20:32:12.958Z,99.90
2018-09-17T20:34:41.864Z,99.90
2018-09-17T20:37:11.867Z,99.90
2018-09-17T20:39:43.641Z,99.90
2018-09-17T20:42:12.609Z,99.90
2018-09-17T20:44:42.341Z,99.90
2018-09-17T20:47:11.121Z,99.90
2018-09-17T20:49:39.685Z,99.90
2018-09-17T20:52:08.132Z,99.90
2018-09-17T20:54:36.487Z,99.90
2018-09-17T20:57:04.822Z,99.90
2018-09-17T20:59:33.200Z,99.90
2018-09-17T21:02:01.589Z,99.90
2018-09-17T21:04:29.951Z,99.90
2018-09-17T21:06:58.503Z,99.90
2018-09-17T21:09:26.905Z,99.90
2018-09-17T21:11:55.280Z,99.90
2018-09-17T21:14:23.618Z,99.90
2018-09-17T21:16:51.961Z,99.90
2018-09-17T21:19:20.451Z,99.90
2018-09-17T21:21:48.806Z,99.90
2018-09-17T21:24:17.172Z,99.90
2018-09-17T21:26:45.546Z,99.90
2018-09-17T21:29:13.983Z,99.90
2018-09-17T21:31:42.540Z,99.90
2018-09-17T21:34:10.912Z,99.90
2018-09-17T21:36:39.367Z,99.90
2018-09-17T21:39:10.164Z,99.90
2018-09-17T21:41:38.616Z,99.90
2018-09-17T21:44:07.071Z,99.90
2018-09-17T21:46:35.459Z,99.90
2018-09-17T21:49:03.864Z,99.90
2018-09-17T21:51:32.253Z,99.90
2018-09-17T21:54:00.630Z,99.90
2018-09-17T21:56:28.990Z,99.90
2018-09-17T21:58:57.373Z,99.90
2018-09-17T22:01:25.713Z,99.90
2018-09-17T22:03:54.092Z,99.90
2018-09-17T22:06:22.456Z,99.90
2018-09-17T22:08:50.829Z,99.90
2018-09-17T22:11:19.228Z,99.90
2018-09-17T22:13:47.804Z,99.90
2018-09-17T22:16:16.125Z,99.90
2018-09-17T22:18:44.507Z,99.90
2018-09-17T22:21:12.881Z,99.90
2018-09-17T22:23:41.207Z,99.90
2018-09-17T22:26:09.577Z,99.90
2018-09-17T22:28:37.918Z,99.90
2018-09-17T22:31:06.615Z,99.90
2018-09-17T22:33:34.960Z,99.90
2018-09-17T22:36:03.788Z,99.90
2018-09-17T22:38:32.096Z,99.90
2018-09-17T22:41:00.472Z,99.90
2018-09-17T22:43:28.788Z,99.90
2018-09-17T22:45:57.115Z,99.90
2018-09-17T22:48:25.704Z,99.90
2018-09-17T22:50:54.055Z,99.90
2018-09-17T22:53:22.441Z,99.90
2018-09-17T22:55:50.844Z,99.90
2018-09-17T22:58:19.188Z,99.90
2018-09-17T23:00:47.532Z,99.90
2018-09-17T23:03:15.949Z,99.90
2018-09-17T23:05:44.271Z,99.90
2018-09-17T23:08:12.636Z,99.90
2018-09-17T23:10:41.060Z,99.90
2018-09-17T23:13:09.412Z,99.90
2018-09-17T23:15:37.790Z,99.90
2018-09-17T23:18:06.224Z,99.90
2018-09-17T23:20:34.544Z,99.90
2018-09-17T23:23:02.884Z,99.90
2018-09-17T23:25:31.240Z,99.90
2018-09-17T23:27:59.610Z,99.90
2018-09-17T23:30:27.961Z,99.90
2018-09-17T23:32:56.284Z,99.90
2018-09-17T23:35:24.687Z,99.90
2018-09-17T23:37:53.106Z,99.90
2018-09-17T23:40:21.541Z,99.90
2018-09-17T23:42:49.883Z,99.90
2018-09-17T23:45:18.208Z,99.90
2018-09-17T23:47:46.579Z,99.90
2018-09-17T23:50:15.249Z,99.90
2018-09-17T23:52:43.553Z,99.90
2018-09-17T23:55:11.880Z,99.90
2018-09-17T23:57:40.266Z,99.90
